Time;durP1;ratioP1;P1;durP2;ratioP2;P2;SDS_P1;SDS_P2;PMS_P1;PMS_P2;Temp;Humidity;BMP_temperature;BMP_pressure;BME280_temperature;BME280_humidity;BME280_pressure;Samples;Min_cycle;Max_cycle;Signal;HPM_P1;HPM_P2
2022/02/12 00:00:14;;;;;;;;;;;205.70;1868.80;;;;;;5095714;28;19912;-87
2022/02/12 00:02:40;;;;;;;;;;;230.40;1894.40;;;;;;5077933;28;20380;-83
2022/02/12 00:05:06;;;;;;;;;;;230.50;1894.40;;;;;;5096102;28;19914;-84
2022/02/12 00:07:31;;;;;;;;;;;230.60;1868.80;;;;;;5067851;28;19923;-85
2022/02/12 00:09:57;;;;;;;;;;;230.90;1843.20;;;;;;5073192;28;19912;-85
2022/02/12 00:12:23;;;;;;;;;;;230.50;1920.00;;;;;;5057761;28;19916;-85
2022/02/12 00:14:48;;;;;;;;;;;230.40;1945.60;;;;;;5057975;28;19915;-82
2022/02/12 00:17:14;;;;;;;;;;;230.40;1945.60;;;;;;5057651;28;19909;-77
2022/02/12 00:19:40;;;;;;;;;;;205.70;1971.20;;;;;;5057826;28;20288;-80
2022/02/12 00:22:05;;;;;;;;;;;205.70;1996.80;;;;;;5057674;28;20360;-86
2022/02/12 00:24:31;;;;;;;;;;;205.70;1996.80;;;;;;5057682;28;19915;-83
2022/02/12 00:26:56;;;;;;;;;;;205.50;2022.40;;;;;;5075250;28;19909;-81
2022/02/12 00:29:22;;;;;;;;;;;205.40;2048.00;;;;;;5057272;28;19919;-78
2022/02/12 00:31:47;;;;;;;;;;;205.60;2022.40;;;;;;5091165;28;19912;-76
2022/02/12 00:34:13;;;;;;;;;;;205.70;2022.40;;;;;;5057144;28;20280;-83
2022/02/12 00:36:39;;;;;;;;;;;205.70;1971.20;;;;;;5057669;28;19909;-79
2022/02/12 00:39:04;;;;;;;;;;;205.70;1996.80;;;;;;5074957;28;19909;-83
2022/02/12 00:41:30;;;;;;;;;;;205.70;1996.80;;;;;;5057249;28;20011;-79
2022/02/12 00:43:56;;;;;;;;;;;205.70;1996.80;;;;;;5053715;28;20360;-83
2022/02/12 00:46:21;;;;;;;;;;;205.70;2022.40;;;;;;5073249;28;19908;-85
2022/02/12 00:48:47;;;;;;;;;;;205.60;1996.80;;;;;;5057328;28;20325;-79
2022/02/12 00:51:13;;;;;;;;;;;205.60;1996.80;;;;;;5091001;28;19916;-87
2022/02/12 00:53:42;;;;;;;;;;;230.40;1996.80;;;;;;5057058;28;19912;-87
2022/02/12 00:56:07;;;;;;;;;;;230.40;1971.20;;;;;;5057408;28;19913;-80
2022/02/12 00:58:33;;;;;;;;;;;205.70;1971.20;;;;;;5057195;28;19931;-86
2022/02/12 01:00:59;;;;;;;;;;;230.60;1945.60;;;;;;5056836;28;19955;-80
2022/02/12 01:03:24;;;;;;;;;;;230.60;1945.60;;;;;;5056847;28;19915;-81
2022/02/12 01:05:50;;;;;;;;;;;230.70;1945.60;;;;;;5074839;28;19917;-81
2022/02/12 01:08:16;;;;;;;;;;;230.80;1945.60;;;;;;5090010;28;19926;-78
2022/02/12 01:10:41;;;;;;;;;;;230.60;1996.80;;;;;;5085972;28;20371;-83
2022/02/12 01:13:07;;;;;;;;;;;230.70;1971.20;;;;;;5085974;28;20295;-83
2022/02/12 01:15:33;;;;;;;;;;;230.70;1971.20;;;;;;5093121;28;19908;-88
2022/02/12 01:17:59;;;;;;;;;;;230.40;1996.80;;;;;;5088344;28;19952;-84
2022/02/12 01:20:25;;;;;;;;;;;205.70;2022.40;;;;;;5094557;28;19966;-77
2022/02/12 01:22:50;;;;;;;;;;;205.70;2022.40;;;;;;5090270;28;19908;-80
2022/02/12 01:25:16;;;;;;;;;;;205.70;1996.80;;;;;;5090769;28;20284;-84
2022/02/12 01:27:42;;;;;;;;;;;230.50;1996.80;;;;;;5127375;27;20416;-86
2022/02/12 01:30:08;;;;;;;;;;;230.50;1996.80;;;;;;5094228;28;19931;-83
2022/02/12 01:32:34;;;;;;;;;;;230.60;1996.80;;;;;;5093886;28;19916;-83
2022/02/12 01:34:59;;;;;;;;;;;230.70;1971.20;;;;;;5088101;28;19913;-83
2022/02/12 01:37:25;;;;;;;;;;;230.80;1945.60;;;;;;5091053;28;19908;-85
2022/02/12 01:39:51;;;;;;;;;;;230.60;1971.20;;;;;;5094499;28;19961;-81
2022/02/12 01:42:17;;;;;;;;;;;230.80;1945.60;;;;;;5091164;28;20003;-79
2022/02/12 01:44:43;;;;;;;;;;;230.70;1945.60;;;;;;5114926;28;19908;-84
2022/02/12 01:47:10;;;;;;;;;;;230.50;1971.20;;;;;;5113730;28;19908;-84
2022/02/12 01:49:36;;;;;;;;;;;230.60;1996.80;;;;;;5096463;28;19916;-76
2022/02/12 01:52:05;;;;;;;;;;;230.60;1971.20;;;;;;5114328;28;19954;-86
2022/02/12 01:54:31;;;;;;;;;;;230.70;1971.20;;;;;;5114036;28;20348;-83
2022/02/12 01:56:58;;;;;;;;;;;230.50;1971.20;;;;;;5096446;28;19918;-84
2022/02/12 01:59:24;;;;;;;;;;;230.90;1945.60;;;;;;5096069;28;19907;-84
2022/02/12 02:01:50;;;;;;;;;;;230.90;1971.20;;;;;;5096226;28;19912;-79
2022/02/12 02:04:19;;;;;;;;;;;230.80;1996.80;;;;;;5114187;28;19912;-86
2022/02/12 02:06:46;;;;;;;;;;;230.70;2022.40;;;;;;5096171;28;19927;-86
2022/02/12 02:09:12;;;;;;;;;;;230.60;2048.00;;;;;;5114305;28;19912;-83
2022/02/12 02:11:38;;;;;;;;;;;230.40;2099.20;;;;;;5114291;28;19918;-82
2022/02/12 02:14:03;;;;;;;;;;;205.60;2124.80;;;;;;5114178;28;20253;-86
2022/02/12 02:16:29;;;;;;;;;;;205.50;2124.80;;;;;;5095937;28;20076;-87
2022/02/12 02:18:55;;;;;;;;;;;205.70;2099.20;;;;;;5095955;28;19919;-83
2022/02/12 02:21:22;;;;;;;;;;;205.60;2099.20;;;;;;5113980;28;20346;-80
2022/02/12 02:23:48;;;;;;;;;;;230.40;2099.20;;;;;;5111387;28;19962;-77
2022/02/12 02:26:14;;;;;;;;;;;230.40;2099.20;;;;;;5113585;28;19918;-85
2022/02/12 02:28:40;;;;;;;;;;;230.40;2099.20;;;;;;5095885;28;20533;-81
2022/02/12 02:31:06;;;;;;;;;;;230.50;2073.60;;;;;;5113918;28;20412;-85
2022/02/12 02:33:31;;;;;;;;;;;230.50;2073.60;;;;;;5113883;28;20321;-82
2022/02/12 02:35:57;;;;;;;;;;;230.60;2048.00;;;;;;5113761;28;19943;-84
2022/02/12 02:38:24;;;;;;;;;;;230.60;2048.00;;;;;;5095800;28;19920;-86
2022/02/12 02:40:50;;;;;;;;;;;230.40;2073.60;;;;;;5093018;28;20371;-79
2022/02/12 02:43:15;;;;;;;;;;;230.60;2048.00;;;;;;5113608;28;19915;-84
2022/02/12 02:45:41;;;;;;;;;;;230.40;2048.00;;;;;;5095771;28;19912;-82
2022/02/12 02:48:10;;;;;;;;;;;230.40;2073.60;;;;;;5094893;28;20431;-80
2022/02/12 02:56:07;;;;;;;;;;;230.40;2048.00;;;;;;5113348;28;20370;-80
2022/02/12 02:58:35;;;;;;;;;;;205.40;2099.20;;;;;;5095470;28;20355;-85
2022/02/12 03:01:02;;;;;;;;;;;205.10;2124.80;;;;;;5095167;28;19912;-79
2022/02/12 03:03:27;;;;;;;;;;;204.80;2124.80;;;;;;5095246;28;19908;-85
2022/02/12 03:05:53;;;;;;;;;;;204.90;2150.40;;;;;;5113540;28;20465;-86
2022/02/12 03:08:18;;;;;;;;;;;204.80;2150.40;;;;;;5113485;28;19942;-84
2022/02/12 03:10:44;;;;;;;;;;;204.90;2124.80;;;;;;5095208;28;19923;-84
2022/02/12 03:13:10;;;;;;;;;;;205.20;2073.60;;;;;;5094906;28;19963;-84
2022/02/12 03:15:40;;;;;;;;;;;205.10;2073.60;;;;;;5113204;28;19915;-82
2022/02/12 03:18:06;;;;;;;;;;;205.40;2048.00;;;;;;5095017;28;19926;-83
2022/02/12 03:20:32;;;;;;;;;;;205.60;1996.80;;;;;;5113551;28;19912;-85
2022/02/12 03:22:58;;;;;;;;;;;205.40;1996.80;;;;;;5113175;28;19954;-85
2022/02/12 03:25:23;;;;;;;;;;;205.70;1971.20;;;;;;5113547;28;19911;-85
2022/02/12 03:27:53;;;;;;;;;;;230.40;1971.20;;;;;;5113536;28;19908;-86
2022/02/12 03:30:18;;;;;;;;;;;205.60;1996.80;;;;;;5113544;28;19994;-82
2022/02/12 03:32:44;;;;;;;;;;;230.40;1996.80;;;;;;5095111;28;20041;-82
2022/02/12 03:35:09;;;;;;;;;;;230.40;1996.80;;;;;;5095078;28;19934;-86
2022/02/12 03:37:35;;;;;;;;;;;205.70;1996.80;;;;;;5094541;28;19915;-85
2022/02/12 03:40:00;;;;;;;;;;;230.40;2022.40;;;;;;5094779;28;19908;-85
2022/02/12 03:42:26;;;;;;;;;;;205.70;2022.40;;;;;;5094864;28;19939;-79
2022/02/12 03:44:51;;;;;;;;;;;205.70;2048.00;;;;;;5113040;28;19952;-85
2022/02/12 03:47:17;;;;;;;;;;;205.60;2073.60;;;;;;5094705;28;19908;-84
2022/02/12 03:49:44;;;;;;;;;;;205.20;2099.20;;;;;;5113041;28;20004;-78
2022/02/12 03:52:09;;;;;;;;;;;205.40;2099.20;;;;;;5094931;28;19961;-85
2022/02/12 03:54:35;;;;;;;;;;;205.70;2073.60;;;;;;5112825;28;20341;-84
2022/02/12 03:57:00;;;;;;;;;;;205.70;2048.00;;;;;;5113042;28;19912;-86
2022/02/12 03:59:26;;;;;;;;;;;205.70;2073.60;;;;;;5094996;28;20089;-79
2022/02/12 04:01:51;;;;;;;;;;;205.50;2073.60;;;;;;5092158;28;19908;-86
2022/02/12 04:04:17;;;;;;;;;;;205.30;2099.20;;;;;;5112730;28;20351;-83
2022/02/12 04:06:43;;;;;;;;;;;205.50;2099.20;;;;;;5112617;28;19911;-85
2022/02/12 04:09:08;;;;;;;;;;;205.60;2073.60;;;;;;5112952;28;19943;-82
2022/02/12 04:11:34;;;;;;;;;;;205.70;2073.60;;;;;;5097917;28;19908;-83
2022/02/12 04:13:59;;;;;;;;;;;205.70;2073.60;;;;;;5116691;28;20360;-80
2022/02/12 04:16:25;;;;;;;;;;;205.70;2048.00;;;;;;5098057;28;19908;-77
2022/02/12 04:18:51;;;;;;;;;;;230.40;2048.00;;;;;;5116351;28;20060;-84
2022/02/12 04:21:16;;;;;;;;;;;205.60;2048.00;;;;;;5116392;28;19911;-81
2022/02/12 04:23:42;;;;;;;;;;;205.70;2048.00;;;;;;5098295;28;19911;-79
2022/02/12 04:26:09;;;;;;;;;;;205.70;2073.60;;;;;;5098111;28;19916;-80
2022/02/12 04:28:37;;;;;;;;;;;205.70;2048.00;;;;;;5116602;28;19908;-83
2022/02/12 04:31:03;;;;;;;;;;;205.50;2073.60;;;;;;5116005;28;19911;-83
2022/02/12 04:33:28;;;;;;;;;;;205.50;2048.00;;;;;;5097365;28;19966;-85
2022/02/12 04:35:54;;;;;;;;;;;205.50;2073.60;;;;;;5116139;28;19935;-77
2022/02/12 04:38:20;;;;;;;;;;;205.50;2073.60;;;;;;5097820;28;19912;-84
2022/02/12 04:40:45;;;;;;;;;;;205.40;2073.60;;;;;;5097949;28;19907;-86
2022/02/12 04:43:11;;;;;;;;;;;205.20;2073.60;;;;;;5097841;28;20433;-85
2022/02/12 04:45:36;;;;;;;;;;;205.10;2124.80;;;;;;5097812;28;19908;-80
2022/02/12 04:48:02;;;;;;;;;;;205.30;2099.20;;;;;;5115652;28;19918;-83
2022/02/12 04:50:28;;;;;;;;;;;205.20;2099.20;;;;;;5097947;28;19919;-80
2022/02/12 04:52:53;;;;;;;;;;;205.20;2099.20;;;;;;5097645;28;20368;-85
2022/02/12 04:55:20;;;;;;;;;;;205.30;2099.20;;;;;;5097719;28;19908;-80
2022/02/12 04:57:45;;;;;;;;;;;205.20;2124.80;;;;;;5115754;28;19964;-85
2022/02/12 05:00:12;;;;;;;;;;;205.30;2099.20;;;;;;5097493;28;19907;-80
2022/02/12 05:02:41;;;;;;;;;;;205.20;2099.20;;;;;;5115518;28;19912;-84
2022/02/12 05:05:07;;;;;;;;;;;205.10;2124.80;;;;;;5097369;28;19912;-78
2022/02/12 05:07:33;;;;;;;;;;;180.10;2201.60;;;;;;5115221;28;19916;-85
2022/02/12 05:09:58;;;;;;;;;;;204.90;2201.60;;;;;;5115357;28;19908;-84
2022/02/12 05:12:24;;;;;;;;;;;204.90;2150.40;;;;;;5115441;28;20006;-85
2022/02/12 05:14:50;;;;;;;;;;;205.00;2150.40;;;;;;5096971;28;20659;-80
2022/02/12 05:17:15;;;;;;;;;;;205.10;2150.40;;;;;;5097224;28;19950;-84
2022/02/12 05:19:41;;;;;;;;;;;205.10;2124.80;;;;;;5096970;28;19912;-85
2022/02/12 05:22:07;;;;;;;;;;;205.00;2124.80;;;;;;5114275;28;19995;-80
2022/02/12 05:24:33;;;;;;;;;;;180.10;2201.60;;;;;;5096642;28;19908;-85
2022/02/12 05:26:58;;;;;;;;;;;204.80;2176.00;;;;;;5115123;28;19908;-84
2022/02/12 05:29:24;;;;;;;;;;;204.80;2150.40;;;;;;5097137;28;20372;-82
2022/02/12 05:31:49;;;;;;;;;;;204.80;2176.00;;;;;;5114953;28;19965;-85
2022/02/12 05:34:15;;;;;;;;;;;204.80;2176.00;;;;;;5115022;28;20498;-84
2022/02/12 05:36:41;;;;;;;;;;;180.00;2176.00;;;;;;5096467;28;19945;-81
2022/02/12 05:39:09;;;;;;;;;;;180.10;2150.40;;;;;;5097027;28;19908;-77
2022/02/12 05:41:36;;;;;;;;;;;180.10;2176.00;;;;;;5096471;28;20356;-80
2022/02/12 05:44:02;;;;;;;;;;;180.10;2150.40;;;;;;5096689;28;19915;-84
2022/02/12 05:46:28;;;;;;;;;;;179.90;2176.00;;;;;;5114608;28;20344;-84
2022/02/12 05:48:53;;;;;;;;;;;179.90;2150.40;;;;;;5114776;28;19916;-82
2022/02/12 05:51:21;;;;;;;;;;;180.00;2150.40;;;;;;5114449;28;19916;-78
2022/02/12 05:53:46;;;;;;;;;;;180.10;2124.80;;;;;;5096276;28;20075;-77
2022/02/12 05:56:12;;;;;;;;;;;179.90;2150.40;;;;;;5096323;28;19922;-83
2022/02/12 05:58:37;;;;;;;;;;;179.80;2176.00;;;;;;5114148;28;19912;-82
2022/02/12 06:01:03;;;;;;;;;;;179.70;2176.00;;;;;;5096728;28;20320;-84
2022/02/12 06:03:29;;;;;;;;;;;179.50;2201.60;;;;;;5096161;28;19908;-84
2022/02/12 06:05:54;;;;;;;;;;;179.60;2227.20;;;;;;5096223;28;19908;-84
2022/02/12 06:08:20;;;;;;;;;;;179.70;2201.60;;;;;;5096006;28;19927;-79
2022/02/12 06:10:46;;;;;;;;;;;179.90;2150.40;;;;;;5114553;28;20396;-76
2022/02/12 06:13:12;;;;;;;;;;;180.00;2124.80;;;;;;5113900;28;19920;-85
2022/02/12 06:15:38;;;;;;;;;;;180.00;2124.80;;;;;;5114197;28;20052;-85
2022/02/12 06:18:03;;;;;;;;;;;180.00;2124.80;;;;;;5095774;28;20283;-79
2022/02/12 06:20:30;;;;;;;;;;;180.00;2124.80;;;;;;5096223;28;19919;-84
2022/02/12 06:22:57;;;;;;;;;;;180.00;2124.80;;;;;;5096077;28;19912;-86
2022/02/12 06:25:23;;;;;;;;;;;180.10;2124.80;;;;;;5096190;28;19961;-79
2022/02/12 06:27:48;;;;;;;;;;;204.80;2099.20;;;;;;5114138;28;19912;-86
2022/02/12 06:30:14;;;;;;;;;;;204.80;2099.20;;;;;;5095876;28;20379;-79
2022/02/12 06:32:39;;;;;;;;;;;180.10;2124.80;;;;;;5113701;28;19962;-86
2022/02/12 06:35:05;;;;;;;;;;;180.10;2124.80;;;;;;5113946;28;20410;-79
2022/02/12 06:37:31;;;;;;;;;;;180.10;2124.80;;;;;;5095432;28;19912;-83
2022/02/12 06:39:57;;;;;;;;;;;179.70;2201.60;;;;;;5095679;28;19908;-83
2022/02/12 06:42:22;;;;;;;;;;;179.90;2176.00;;;;;;5114198;28;19908;-81
2022/02/12 06:44:48;;;;;;;;;;;180.00;2150.40;;;;;;5113865;28;19999;-82
2022/02/12 06:47:14;;;;;;;;;;;180.00;2176.00;;;;;;5114028;28;19908;-82
2022/02/12 06:49:39;;;;;;;;;;;180.10;2150.40;;;;;;5095400;28;20464;-81
2022/02/12 06:52:05;;;;;;;;;;;180.00;2150.40;;;;;;5095629;28;19912;-77
2022/02/12 06:54:31;;;;;;;;;;;179.90;2176.00;;;;;;5095758;28;19919;-75
2022/02/12 06:56:57;;;;;;;;;;;179.90;2201.60;;;;;;5095655;28;20002;-77
2022/02/12 06:59:23;;;;;;;;;;;180.10;2150.40;;;;;;5114137;28;20386;-75
2022/02/12 07:01:49;;;;;;;;;;;204.80;2150.40;;;;;;5095021;28;19912;-76
2022/02/12 07:04:14;;;;;;;;;;;204.90;2124.80;;;;;;5095719;28;19908;-81
2022/02/12 07:06:40;;;;;;;;;;;205.00;2124.80;;;;;;5094428;28;20493;-81
2022/02/12 07:09:06;;;;;;;;;;;205.10;2124.80;;;;;;5113452;28;19923;-85
2022/02/12 07:11:33;;;;;;;;;;;204.80;2150.40;;;;;;5113026;28;19915;-78
2022/02/12 07:13:59;;;;;;;;;;;180.00;2201.60;;;;;;5095307;28;19918;-81
2022/02/12 07:16:24;;;;;;;;;;;180.10;2201.60;;;;;;5094857;28;19987;-78
2022/02/12 07:18:50;;;;;;;;;;;179.90;2176.00;;;;;;5112964;28;19923;-78
2022/02/12 07:21:16;;;;;;;;;;;179.90;2201.60;;;;;;5095462;28;19911;-83
2022/02/12 07:23:42;;;;;;;;;;;179.90;2176.00;;;;;;5112687;28;20363;-78
2022/02/12 07:26:08;;;;;;;;;;;179.80;2150.40;;;;;;5113211;28;19915;-83
2022/02/12 07:28:34;;;;;;;;;;;179.70;2176.00;;;;;;5113110;28;19934;-76
2022/02/12 07:31:00;;;;;;;;;;;179.70;2150.40;;;;;;5113324;28;19919;-77
2022/02/12 07:33:26;;;;;;;;;;;179.90;2150.40;;;;;;5095405;28;19965;-77
2022/02/12 07:35:52;;;;;;;;;;;179.80;2150.40;;;;;;5095670;28;19911;-76
2022/02/12 07:38:18;;;;;;;;;;;179.90;2150.40;;;;;;5113486;28;19915;-78
2022/02/12 07:40:43;;;;;;;;;;;180.10;2099.20;;;;;;5095537;28;19907;-80
2022/02/12 07:43:09;;;;;;;;;;;180.00;2099.20;;;;;;5094681;28;19915;-77
2022/02/12 07:45:34;;;;;;;;;;;179.90;2099.20;;;;;;5096905;28;20275;-78
2022/02/12 07:48:00;;;;;;;;;;;179.90;2124.80;;;;;;5098647;28;19919;-77
2022/02/12 07:50:26;;;;;;;;;;;179.90;2124.80;;;;;;5098731;28;20351;-82
2022/02/12 07:52:52;;;;;;;;;;;180.00;2099.20;;;;;;5117131;28;19975;-83
2022/02/12 07:55:17;;;;;;;;;;;179.90;2124.80;;;;;;5098840;28;19908;-83
2022/02/12 07:57:43;;;;;;;;;;;180.00;2150.40;;;;;;5098464;28;19908;-83
2022/02/12 08:00:09;;;;;;;;;;;204.80;2124.80;;;;;;5098397;28;19908;-75
2022/02/12 08:02:35;;;;;;;;;;;180.10;2124.80;;;;;;5098538;28;19949;-83
2022/02/12 08:05:01;;;;;;;;;;;180.10;2124.80;;;;;;5116332;28;19957;-76
2022/02/12 08:07:29;;;;;;;;;;;204.90;2150.40;;;;;;5116847;28;19916;-83
2022/02/12 08:09:59;;;;;;;;;;;205.00;2150.40;;;;;;5098652;28;19908;-80
2022/02/12 08:12:25;;;;;;;;;;;205.10;2150.40;;;;;;5116616;28;20003;-78
2022/02/12 08:14:51;;;;;;;;;;;205.20;2124.80;;;;;;5098710;28;19920;-82
2022/02/12 08:17:18;;;;;;;;;;;205.20;2124.80;;;;;;5116411;28;19952;-83
2022/02/12 08:19:44;;;;;;;;;;;205.30;2124.80;;;;;;5098369;28;19912;-77
2022/02/12 08:22:11;;;;;;;;;;;205.60;2124.80;;;;;;5098223;28;20003;-76
2022/02/12 08:24:36;;;;;;;;;;;205.40;2099.20;;;;;;5116808;28;19908;-83
2022/02/12 08:27:02;;;;;;;;;;;205.50;2073.60;;;;;;5116231;28;19953;-81
2022/02/12 08:29:28;;;;;;;;;;;205.50;2099.20;;;;;;5116627;28;20356;-81
2022/02/12 08:31:55;;;;;;;;;;;205.70;2073.60;;;;;;5116183;28;19911;-75
2022/02/12 08:34:21;;;;;;;;;;;230.40;2048.00;;;;;;5098242;28;20415;-79
2022/02/12 08:36:47;;;;;;;;;;;205.70;2048.00;;;;;;5098052;28;19951;-76
2022/02/12 08:39:13;;;;;;;;;;;230.40;2099.20;;;;;;5097804;28;19908;-81
2022/02/12 08:41:38;;;;;;;;;;;230.50;2073.60;;;;;;5097872;28;19964;-85
2022/02/12 08:44:04;;;;;;;;;;;230.50;2022.40;;;;;;5116059;28;19908;-76
2022/02/12 08:46:30;;;;;;;;;;;230.50;2022.40;;;;;;5116200;28;20413;-85
2022/02/12 08:48:56;;;;;;;;;;;230.60;2022.40;;;;;;5097924;28;19919;-76
2022/02/12 08:51:21;;;;;;;;;;;230.60;2048.00;;;;;;5097518;28;19974;-76
2022/02/12 08:53:47;;;;;;;;;;;230.60;2048.00;;;;;;5115913;28;19916;-76
2022/02/12 08:56:13;;;;;;;;;;;230.60;2022.40;;;;;;5097760;28;20410;-76
2022/02/12 08:58:39;;;;;;;;;;;230.70;2022.40;;;;;;5115621;28;19911;-76
2022/02/12 09:01:05;;;;;;;;;;;230.70;2022.40;;;;;;5097598;28;19908;-75
2022/02/12 09:03:31;;;;;;;;;;;230.80;2022.40;;;;;;5097390;28;19919;-77
2022/02/12 09:05:58;;;;;;;;;;;230.80;2048.00;;;;;;5115641;28;19999;-85
2022/02/12 09:08:24;;;;;;;;;;;230.90;2022.40;;;;;;5115848;28;19961;-81
2022/02/12 09:10:50;;;;;;;;;;;231.00;1996.80;;;;;;5096926;28;19947;-79
2022/02/12 09:13:16;;;;;;;;;;;231.00;1996.80;;;;;;5097238;28;19916;-76
2022/02/12 09:15:41;;;;;;;;;;;231.00;2022.40;;;;;;5096819;28;19915;-81
2022/02/12 09:18:07;;;;;;;;;;;231.10;2022.40;;;;;;5115425;28;19964;-82
2022/02/12 09:20:32;;;;;;;;;;;231.20;2022.40;;;;;;5115377;28;20014;-77
2022/02/12 09:22:58;;;;;;;;;;;231.10;1996.80;;;;;;5097865;28;19907;-76
2022/02/12 09:25:24;;;;;;;;;;;231.20;1971.20;;;;;;5097374;28;20310;-79
2022/02/12 09:27:49;;;;;;;;;;;231.20;1996.80;;;;;;5115278;28;19908;-81
2022/02/12 09:30:15;;;;;;;;;;;256.00;1971.20;;;;;;5114968;28;20371;-79
2022/02/12 09:32:41;;;;;;;;;;;256.20;1945.60;;;;;;5096794;28;19920;-78
2022/02/12 09:35:06;;;;;;;;;;;256.20;1945.60;;;;;;5115300;28;19919;-81
2022/02/12 09:37:32;;;;;;;;;;;256.20;1945.60;;;;;;5115165;28;20376;-81
2022/02/12 09:39:58;;;;;;;;;;;256.40;1971.20;;;;;;5115102;28;20331;-76
2022/02/12 09:42:23;;;;;;;;;;;256.60;1945.60;;;;;;5114722;28;19915;-76
2022/02/12 09:44:49;;;;;;;;;;;256.70;1920.00;;;;;;5115021;28;20359;-83
2022/02/12 09:47:17;;;;;;;;;;;256.60;1894.40;;;;;;5096471;28;20308;-81
2022/02/12 09:49:43;;;;;;;;;;;256.90;1920.00;;;;;;5096583;28;19912;-76
2022/02/12 09:52:15;;;;;;;;;;;281.80;1920.00;;;;;;5096436;28;19918;-84
2022/02/12 09:54:42;;;;;;;;;;;281.90;1894.40;;;;;;5096159;28;19916;-80
2022/02/12 09:57:08;;;;;;;;;;;282.00;1843.20;;;;;;5114233;28;19960;-83
2022/02/12 09:59:34;;;;;;;;;;;281.90;1843.20;;;;;;5096136;28;20014;-81
2022/02/12 10:01:59;;;;;;;;;;;282.00;1817.60;;;;;;5114414;28;20386;-78
2022/02/12 10:04:25;;;;;;;;;;;282.30;1792.00;;;;;;5113905;28;19974;-80
2022/02/12 10:06:51;;;;;;;;;;;282.30;1766.40;;;;;;5113772;28;19916;-77
2022/02/12 10:09:17;;;;;;;;;;;282.40;1766.40;;;;;;5095383;28;20024;-85
2022/02/12 10:11:52;;;;;;;;;;;282.30;1740.80;;;;;;5096378;28;19931;-86
2022/02/12 10:14:19;;;;;;;;;;;282.50;1766.40;;;;;;5095398;28;19912;-86
2022/02/12 10:16:50;;;;;;;;;;;307.50;1766.40;;;;;;5095734;28;19914;-84
2022/02/12 10:19:15;;;;;;;;;;;307.50;1740.80;;;;;;5114241;28;19912;-78
2022/02/12 10:22:01;;;;;;;;;;;282.50;1715.20;;;;;;5113430;28;19915;-85
2022/02/12 10:24:52;;;;;;;;;;;307.50;1715.20;;;;;;5112451;28;19960;-81
2022/02/12 10:27:25;;;;;;;;;;;307.60;1664.00;;;;;;5096053;28;20249;-86
2022/02/12 10:29:52;;;;;;;;;;;307.80;1638.40;;;;;;5113980;28;19961;-87
2022/02/12 10:32:19;;;;;;;;;;;307.80;1612.80;;;;;;5114237;28;19915;-87
2022/02/12 10:34:45;;;;;;;;;;;307.50;1587.20;;;;;;5113811;28;19908;-87
2022/02/12 10:37:12;;;;;;;;;;;282.50;1638.40;;;;;;5113529;28;19943;-78
2022/02/12 10:39:39;;;;;;;;;;;307.40;1612.80;;;;;;5114018;28;19952;-76
2022/02/12 10:42:05;;;;;;;;;;;307.30;1587.20;;;;;;5095901;28;19957;-85
2022/02/12 10:44:31;;;;;;;;;;;307.60;1612.80;;;;;;5114058;28;20003;-78
2022/02/12 10:46:57;;;;;;;;;;;307.90;1612.80;;;;;;5095946;28;19947;-82
2022/02/12 10:49:23;;;;;;;;;;;308.10;1561.60;;;;;;5095874;28;19923;-85
2022/02/12 10:51:51;;;;;;;;;;;333.10;1587.20;;;;;;5095097;28;19919;-77
2022/02/12 10:54:19;;;;;;;;;;;333.30;1561.60;;;;;;5096057;28;19911;-80
2022/02/12 10:56:47;;;;;;;;;;;333.40;1536.00;;;;;;5113708;28;19915;-86
2022/02/12 10:59:14;;;;;;;;;;;333.50;1536.00;;;;;;5095722;28;19908;-76
2022/02/12 11:01:40;;;;;;;;;;;333.70;1510.40;;;;;;5113204;28;19912;-85
2022/02/12 11:04:07;;;;;;;;;;;333.20;1484.80;;;;;;5095285;28;19915;-85
2022/02/12 11:06:33;;;;;;;;;;;333.60;1536.00;;;;;;5112950;28;19908;-85
2022/02/12 11:08:59;;;;;;;;;;;333.30;1510.40;;;;;;5113592;28;20267;-82
2022/02/12 11:11:25;;;;;;;;;;;333.40;1484.80;;;;;;5094645;28;19908;-79
2022/02/12 11:13:52;;;;;;;;;;;333.50;1536.00;;;;;;5094524;28;19924;-76
2022/02/12 11:16:18;;;;;;;;;;;358.50;1510.40;;;;;;5113161;28;19908;-84
2022/02/12 11:18:44;;;;;;;;;;;358.70;1459.20;;;;;;5094895;28;19914;-82
2022/02/12 11:21:10;;;;;;;;;;;358.90;1433.60;;;;;;5098256;28;20014;-85
2022/02/12 11:23:35;;;;;;;;;;;358.90;1433.60;;;;;;5098309;28;20018;-79
2022/02/12 11:26:04;;;;;;;;;;;359.00;1408.00;;;;;;5098827;28;20344;-85
2022/02/12 11:28:30;;;;;;;;;;;358.70;1408.00;;;;;;5117352;28;19943;-82
2022/02/12 11:31:15;;;;;;;;;;;359.10;1433.60;;;;;;5098002;28;19908;-82
2022/02/12 11:34:00;;;;;;;;;;;359.00;1382.40;;;;;;5117270;28;19920;-76
2022/02/12 11:36:26;;;;;;;;;;;358.50;1459.20;;;;;;5098585;28;19951;-77
2022/02/12 11:39:03;;;;;;;;;;;358.80;1459.20;;;;;;5117162;28;19950;-77
2022/02/12 11:41:29;;;;;;;;;;;359.10;1408.00;;;;;;5099254;28;20287;-81
2022/02/12 11:43:54;;;;;;;;;;;384.00;1382.40;;;;;;5098880;28;19915;-76
2022/02/12 11:46:39;;;;;;;;;;;384.20;1356.80;;;;;;5099036;28;20096;-84
2022/02/12 11:49:23;;;;;;;;;;;359.20;1382.40;;;;;;5099089;28;19912;-77
2022/02/12 11:51:49;;;;;;;;;;;359.20;1331.20;;;;;;5098443;28;20420;-80
2022/02/12 11:54:33;;;;;;;;;;;384.10;1331.20;;;;;;5099028;28;19916;-81
2022/02/12 11:56:59;;;;;;;;;;;384.00;1331.20;;;;;;5117200;28;19908;-77
2022/02/12 11:59:24;;;;;;;;;;;384.00;1331.20;;;;;;5116875;28;19914;-80
2022/02/12 12:01:51;;;;;;;;;;;384.40;1331.20;;;;;;5098642;28;20272;-82
2022/02/12 12:04:25;;;;;;;;;;;384.40;1331.20;;;;;;5116612;28;19911;-82
2022/02/12 12:07:09;;;;;;;;;;;384.30;1331.20;;;;;;5116752;28;19983;-77
2022/02/12 12:09:36;;;;;;;;;;;384.40;1305.60;;;;;;5116878;28;20352;-85
2022/02/12 12:12:22;;;;;;;;;;;384.50;1331.20;;;;;;5116367;28;20362;-81
2022/02/12 12:14:49;;;;;;;;;;;384.60;1331.20;;;;;;5097168;28;20006;-82
2022/02/12 12:17:15;;;;;;;;;;;384.40;1305.60;;;;;;5094952;28;19908;-84
2022/02/12 12:19:42;;;;;;;;;;;384.00;1331.20;;;;;;5098028;28;20019;-76
2022/02/12 12:22:11;;;;;;;;;;;359.10;1356.80;;;;;;5098157;28;20349;-76
2022/02/12 12:24:38;;;;;;;;;;;359.20;1331.20;;;;;;5098181;28;20382;-82
2022/02/12 12:27:04;;;;;;;;;;;359.00;1382.40;;;;;;5116679;28;19956;-82
2022/02/12 12:32:15;;;;;;;;;;;359.30;1356.80;;;;;;5115510;28;19968;-84
2022/02/12 12:34:53;;;;;;;;;;;359.30;1331.20;;;;;;5116083;28;19934;-76
2022/02/12 12:37:23;;;;;;;;;;;359.30;1356.80;;;;;;5115740;28;20374;-80
2022/02/12 12:39:50;;;;;;;;;;;384.40;1331.20;;;;;;5116036;28;19999;-78
2022/02/12 12:42:18;;;;;;;;;;;384.20;1305.60;;;;;;5097346;28;19908;-79
2022/02/12 12:44:57;;;;;;;;;;;384.00;1305.60;;;;;;5097537;28;19907;-79
2022/02/12 12:47:22;;;;;;;;;;;384.00;1305.60;;;;;;5095890;28;20381;-80
2022/02/12 12:49:52;;;;;;;;;;;384.20;1305.60;;;;;;5115316;28;19956;-79
2022/02/12 12:52:21;;;;;;;;;;;384.20;1305.60;;;;;;5094303;28;19934;-75
2022/02/12 12:54:46;;;;;;;;;;;384.00;1305.60;;;;;;5097064;28;20283;-77
2022/02/12 12:57:13;;;;;;;;;;;358.80;1356.80;;;;;;5097540;28;19908;-79
2022/02/12 12:59:48;;;;;;;;;;;358.40;1408.00;;;;;;5115281;28;20405;-79
2022/02/12 13:02:13;;;;;;;;;;;333.70;1382.40;;;;;;5115212;28;19993;-80
2022/02/12 13:04:45;;;;;;;;;;;333.60;1433.60;;;;;;5115429;28;19938;-79
2022/02/12 13:07:14;;;;;;;;;;;358.60;1382.40;;;;;;5114475;28;19927;-77
2022/02/12 13:09:42;;;;;;;;;;;358.80;1356.80;;;;;;5115212;28;20020;-76
2022/02/12 13:12:26;;;;;;;;;;;358.60;1305.60;;;;;;5096536;28;19965;-78
2022/02/12 13:14:56;;;;;;;;;;;358.70;1305.60;;;;;;5129959;27;20015;-78
2022/02/12 13:17:25;;;;;;;;;;;358.80;1305.60;;;;;;5094567;28;19908;-77
2022/02/12 13:19:56;;;;;;;;;;;358.80;1305.60;;;;;;5090126;28;19931;-80
2022/02/12 13:22:22;;;;;;;;;;;358.80;1280.00;;;;;;5094023;28;19914;-78
2022/02/12 13:24:52;;;;;;;;;;;358.60;1305.60;;;;;;5089166;28;20002;-78
2022/02/12 13:27:25;;;;;;;;;;;358.60;1305.60;;;;;;5077949;28;19908;-80
2022/02/12 13:29:59;;;;;;;;;;;358.60;1305.60;;;;;;5095271;28;19998;-76
2022/02/12 13:32:35;;;;;;;;;;;358.50;1331.20;;;;;;5095642;28;19916;-79
2022/02/12 13:35:02;;;;;;;;;;;358.50;1356.80;;;;;;5096502;28;20325;-76
2022/02/12 13:37:33;;;;;;;;;;;358.50;1331.20;;;;;;5114589;28;19912;-78
2022/02/12 13:39:59;;;;;;;;;;;333.50;1331.20;;;;;;5114559;28;19939;-79
2022/02/12 13:42:24;;;;;;;;;;;333.40;1331.20;;;;;;5113968;28;19908;-79
2022/02/12 13:45:00;;;;;;;;;;;333.20;1331.20;;;;;;5096281;28;20357;-77
2022/02/12 13:47:26;;;;;;;;;;;332.90;1356.80;;;;;;5096382;28;20002;-78